Terminal Aerodrome Forecast
Issued by NWS Twin Cities, MN

Home | Current Version | Previous Version | Graphics & Text | Print | Product List | Glossary On
Versions: 1 2 3 4 5 6 7 8 9 10 11 12 13 14 15 16
000
FTUS43 KMPX 291134
TAFSTC
TAF
KSTC 291134Z 2912/3012 31004KT 6SM BR SKC
      TEMPO 2912/2914 4SM BR
     FM291400 31009KT P6SM BKN100
     FM291800 31011KT P6SM -SHRA SCT050 BKN120
      TEMPO 2919/2923 4SM -TSRA BKN040CB
     FM292300 32009KT P6SM SCT120
     FM300200 34005KT P6SM SKC=

USA.gov is the U.S. government's official web portal to all federal, state and local government web resources and services.